Time;durP1;ratioP1;P1;durP2;ratioP2;P2;SDS_P1;SDS_P2;PMS_P1;PMS_P2;Temp;Humidity;BMP_temperature;BMP_pressure;BME280_temperature;BME280_humidity;BME280_pressure;Samples;Min_cycle;Max_cycle;Signal;HPM_P1;HPM_P2
2023/03/30 00:02:21;;;;;;;48.10;31.05;;;;;;;9.70;100.00;100460.94;10359179;28;20432;-72
2023/03/30 00:07:21;;;;;;;49.40;31.75;;;;;;;9.82;100.00;100466.28;10416306;28;20033;-71
2023/03/30 00:12:22;;;;;;;49.38;29.25;;;;;;;9.79;100.00;100459.38;10382559;28;20392;-73
2023/03/30 00:17:22;;;;;;;47.75;30.55;;;;;;;9.78;100.00;100446.72;10361867;28;20068;-72
2023/03/30 00:22:23;;;;;;;43.20;29.23;;;;;;;9.95;100.00;100440.28;10380840;28;21587;-72
2023/03/30 00:27:23;;;;;;;48.92;29.05;;;;;;;9.86;100.00;100421.50;10381093;28;20033;-72
2023/03/30 00:32:24;;;;;;;44.85;28.70;;;;;;;9.85;100.00;100411.59;10382737;28;20049;-73
2023/03/30 00:37:24;;;;;;;41.58;27.55;;;;;;;9.88;100.00;100405.59;10398447;28;20033;-73
2023/03/30 00:42:25;;;;;;;43.75;26.73;;;;;;;10.01;100.00;100398.00;10381983;28;20049;-73
2023/03/30 00:47:25;;;;;;;47.60;27.08;;;;;;;9.93;100.00;100376.47;10382035;28;20057;-74
2023/03/30 00:52:26;;;;;;;42.97;26.38;;;;;;;9.98;100.00;100365.50;10398631;28;20038;-74
2023/03/30 00:57:27;;;;;;;38.90;26.55;;;;;;;9.98;100.00;100380.06;10363944;28;20060;-73
2023/03/30 01:02:29;;;;;;;32.40;24.20;;;;;;;9.99;100.00;100350.69;10381368;28;20033;-73
2023/03/30 01:07:30;;;;;;;34.60;22.13;;;;;;;9.99;100.00;100339.69;10364770;28;20093;-74
2023/03/30 01:12:30;;;;;;;31.85;23.58;;;;;;;9.92;100.00;100323.38;10325280;28;20049;-74
2023/03/30 01:17:48;;;;;;;34.50;23.90;;;;;;;9.63;100.00;100282.50;10339304;28;20037;-71
2023/03/30 01:23:09;;;;;;;35.95;22.67;;;;;;;9.88;100.00;100327.75;10356807;28;20034;-74
2023/03/30 01:28:45;;;;;;;33.10;22.77;;;;;;;9.82;100.00;100313.16;10373081;28;20060;-75
2023/03/30 01:34:06;;;;;;;31.33;21.38;;;;;;;9.76;100.00;100308.72;10354077;28;20187;-75
2023/03/30 01:39:21;;;;;;;30.02;19.77;;;;;;;9.77;100.00;100315.03;10337212;28;20124;-74
2023/03/30 01:44:33;;;;;;;27.92;20.10;;;;;;;9.73;100.00;100309.22;10373377;28;20053;-75
2023/03/30 01:49:38;;;;;;;27.88;19.45;;;;;;;9.67;100.00;100307.53;10371856;28;20097;-74
2023/03/30 01:54:42;;;;;;;30.05;19.73;;;;;;;9.61;100.00;100294.81;10371745;28;20042;-75
2023/03/30 01:59:46;;;;;;;28.10;17.27;;;;;;;9.67;100.00;100282.78;10323285;28;20092;-76
2023/03/30 02:04:46;;;;;;;20.52;14.52;;;;;;;9.65;100.00;100268.47;10372276;28;20042;-75
2023/03/30 02:09:47;;;;;;;22.63;16.58;;;;;;;9.62;100.00;100260.78;10371641;28;20053;-73
2023/03/30 02:14:48;;;;;;;22.80;12.82;;;;;;;9.68;100.00;100265.22;10337777;28;20378;-73
2023/03/30 02:19:48;;;;;;;23.35;14.07;;;;;;;9.65;100.00;100243.72;10371396;28;20045;-73
2023/03/30 02:24:50;;;;;;;19.20;12.07;;;;;;;9.68;100.00;100237.72;10322470;28;20504;-73
2023/03/30 02:29:51;;;;;;;17.40;11.23;;;;;;;9.83;100.00;100243.31;10354595;28;20092;-75
2023/03/30 02:35:18;;;;;;;17.13;9.77;;;;;;;9.98;100.00;100234.31;10353932;28;20521;-74
2023/03/30 02:40:21;;;;;;;;;;;;;;;10.13;100.00;100247.38;10393225;28;20057;-74
2023/03/30 02:45:37;;;;;;;16.98;8.68;;;;;;;10.33;100.00;100230.13;10373369;28;19956;-74
2023/03/30 02:50:56;;;;;;;14.90;6.57;;;;;;;10.46;100.00;100223.34;10353535;28;20050;-75
2023/03/30 02:56:02;;;;;;;11.85;6.72;;;;;;;10.60;100.00;100224.47;10353606;28;20061;-75
2023/03/30 03:01:27;;;;;;;7.72;5.55;;;;;;;10.63;100.00;100212.91;10374475;28;20069;-75
2023/03/30 03:06:28;;;;;;;8.15;5.90;;;;;;;10.73;100.00;100216.78;10351071;28;20549;-75
2023/03/30 03:11:28;;;;;;;11.45;5.93;;;;;;;10.74;100.00;100200.00;10354084;28;20042;-70
2023/03/30 03:16:29;;;;;;;12.50;5.43;;;;;;;10.78;100.00;100190.09;10385190;28;20232;-75
2023/03/30 03:21:30;;;;;;;9.18;5.32;;;;;;;10.84;100.00;100190.94;10385447;28;20033;-75
2023/03/30 03:26:30;;;;;;;10.50;4.88;;;;;;;10.81;100.00;100183.22;10401623;28;20034;-75
2023/03/30 03:31:31;;;;;;;8.93;5.43;;;;;;;10.67;100.00;100181.00;10368997;28;20041;-75
2023/03/30 03:36:31;;;;;;;12.25;5.07;;;;;;;10.61;100.00;100190.34;10409667;28;20053;-75
2023/03/30 03:41:32;;;;;;;14.30;6.30;;;;;;;10.51;100.00;100182.06;10360502;28;20065;-75
2023/03/30 03:46:32;;;;;;;8.80;5.63;;;;;;;10.55;100.00;100191.44;10359778;28;20457;-76
2023/03/30 03:51:34;;;;;;;8.98;4.70;;;;;;;10.58;100.00;100192.81;10359600;28;20037;-75
2023/03/30 03:56:35;;;;;;;9.48;4.57;;;;;;;10.63;100.00;100192.84;10359722;28;20038;-75
2023/03/30 04:01:35;;;;;;;8.95;6.28;;;;;;;10.72;100.00;100190.38;10327608;28;20038;-75
2023/03/30 04:06:36;;;;;;;10.25;4.30;;;;;;;10.84;100.00;100189.00;10375182;28;20038;-69
2023/03/30 04:11:36;;;;;;;9.18;3.90;;;;;;;10.96;100.00;100183.25;10350454;28;20034;-76
2023/03/30 04:16:37;;;;;;;6.80;4.07;;;;;;;11.05;100.00;100167.00;10342107;28;20046;-75
2023/03/30 04:21:39;;;;;;;8.15;3.80;;;;;;;11.01;100.00;100160.38;10358462;28;20042;-75
2023/03/30 04:26:40;;;;;;;7.90;3.50;;;;;;;10.95;100.00;100145.78;10358681;28;20067;-75
2023/03/30 04:31:45;;;;;;;8.68;3.95;;;;;;;11.00;100.00;100145.81;10374911;28;20046;-75
2023/03/30 04:36:47;;;;;;;9.10;3.50;;;;;;;11.02;100.00;100148.28;10342610;28;20114;-74
2023/03/30 04:41:47;;;;;;;10.45;3.83;;;;;;;10.94;100.00;100146.91;10358063;28;20038;-74
2023/03/30 04:46:48;;;;;;;7.82;3.60;;;;;;;10.86;100.00;100144.69;10356558;28;20041;-75
2023/03/30 04:51:48;;;;;;;8.02;3.85;;;;;;;10.79;100.00;100144.13;10356714;28;20054;-75
2023/03/30 04:56:49;;;;;;;7.45;2.72;;;;;;;10.81;100.00;100144.66;10341049;28;20033;-75
2023/03/30 05:01:49;;;;;;;7.13;3.42;;;;;;;10.92;100.00;100160.13;10356301;28;20065;-74
2023/03/30 05:06:50;;;;;;;8.15;3.17;;;;;;;10.95;100.00;100142.22;10357488;28;20072;-74
2023/03/30 05:11:51;;;;;;;9.85;3.28;;;;;;;11.01;100.00;100130.09;10374790;28;20512;-74
2023/03/30 05:16:51;;;;;;;5.85;2.80;;;;;;;11.16;100.00;100156.81;10339036;28;20041;-74
2023/03/30 05:21:52;;;;;;;9.02;3.15;;;;;;;11.09;100.00;100151.56;10339734;28;20201;-75
2023/03/30 05:26:52;;;;;;;6.60;3.10;;;;;;;11.24;100.00;100156.25;10356451;28;20030;-74
2023/03/30 05:31:52;;;;;;;12.23;3.53;;;;;;;11.29;100.00;100136.97;10356305;28;20101;-75
2023/03/30 05:36:53;;;;;;;7.80;3.05;;;;;;;11.45;100.00;100146.88;10373613;28;20038;-74
2023/03/30 05:41:54;;;;;;;11.77;3.40;;;;;;;11.49;100.00;100147.13;10322646;28;20575;-75
2023/03/30 05:46:54;;;;;;;11.65;3.97;;;;;;;11.49;100.00;100147.97;10338491;28;20042;-75
2023/03/30 05:51:55;;;;;;;6.53;3.60;;;;;;;11.45;100.00;100144.13;10338766;28;20394;-75
2023/03/30 05:56:56;;;;;;;9.20;4.07;;;;;;;11.38;100.00;100154.59;10322458;28;20042;-75
2023/03/30 06:01:57;;;;;;;9.77;5.22;;;;;;;11.20;100.00;100147.69;10338818;28;20049;-71
2023/03/30 06:06:57;;;;;;;10.55;5.80;;;;;;;11.06;100.00;100141.94;10356514;28;20048;-69
2023/03/30 06:11:59;;;;;;;11.73;5.75;;;;;;;10.92;100.00;100137.25;10347400;28;21086;-72
2023/03/30 06:17:00;;;;;;;10.70;5.78;;;;;;;10.85;100.00;100118.25;10412544;28;20101;-73
2023/03/30 06:22:00;;;;;;;10.45;5.32;;;;;;;10.95;100.00;100132.00;10413198;28;20029;-74
2023/03/30 06:27:02;;;;;;;11.20;5.72;;;;;;;10.98;100.00;100136.97;10379259;28;20480;-74
2023/03/30 06:32:02;;;;;;;12.70;5.40;;;;;;;10.99;100.00;100138.63;10378560;28;20041;-75
2023/03/30 06:37:05;;;;;;;8.77;5.07;;;;;;;11.10;100.00;100140.28;10386172;28;20116;-75
2023/03/30 06:42:06;;;;;;;12.80;5.72;;;;;;;11.29;100.00;100128.72;10385585;28;20095;-75
2023/03/30 06:47:06;;;;;;;9.80;4.63;;;;;;;11.42;100.00;100147.41;10402605;28;20124;-75
2023/03/30 06:52:07;;;;;;;8.18;4.50;;;;;;;11.51;100.00;100150.44;10402631;28;20136;-75
2023/03/30 06:57:07;;;;;;;7.03;4.47;;;;;;;11.46;100.00;100131.16;10385478;28;20037;-75
2023/03/30 07:02:12;;;;;;;12.75;4.13;;;;;;;11.43;100.00;100138.06;10386405;28;20072;-76
2023/03/30 07:07:13;;;;;;;9.20;4.18;;;;;;;11.37;100.00;100141.94;10385107;28;20025;-77
2023/03/30 07:12:13;;;;;;;9.05;4.07;;;;;;;11.46;100.00;100143.00;10345235;28;20037;-76
2023/03/30 07:17:14;;;;;;;10.30;4.50;;;;;;;11.57;100.00;100148.50;10360370;28;20037;-77
2023/03/30 07:22:15;;;;;;;13.07;4.68;;;;;;;11.64;100.00;100141.59;10361027;28;20038;-78
2023/03/30 07:27:16;;;;;;;10.73;4.40;;;;;;;11.94;100.00;100147.34;10361033;28;20034;-76
2023/03/30 07:32:16;;;;;;;10.40;3.50;;;;;;;12.43;100.00;100158.44;10344486;28;20061;-75
2023/03/30 07:37:17;;;;;;;8.70;3.63;;;;;;;12.51;100.00;100145.97;10357142;28;20082;-76
2023/03/30 07:42:17;;;;;;;11.68;4.82;;;;;;;12.32;100.00;100132.81;10375971;28;20049;-76
2023/03/30 07:47:18;;;;;;;8.75;4.18;;;;;;;12.24;100.00;100163.78;10358433;28;20639;-77
2023/03/30 07:52:19;;;;;;;12.13;3.47;;;;;;;12.08;100.00;100162.19;10375535;28;20044;-72
2023/03/30 07:57:20;;;;;;;15.70;3.65;;;;;;;11.95;100.00;100171.03;10342959;28;20057;-72
2023/03/30 08:02:21;;;;;;;11.50;3.10;;;;;;;11.92;100.00;100172.44;10360259;28;20041;-73
2023/03/30 08:07:21;;;;;;;17.88;3.67;;;;;;;11.92;100.00;100164.16;10359600;28;20034;-72
2023/03/30 08:12:22;;;;;;;8.90;2.90;;;;;;;11.83;100.00;100169.41;10359489;28;20038;-71
2023/03/30 08:17:22;;;;;;;15.18;3.92;;;;;;;11.85;100.00;100174.63;10341925;28;20042;-73
2023/03/30 08:22:23;;;;;;;19.52;3.67;;;;;;;11.84;100.00;100195.84;10376493;28;20064;-71
2023/03/30 08:27:23;;;;;;;14.77;4.38;;;;;;;11.57;100.00;100196.19;10358478;28;20460;-72
2023/03/30 08:32:24;;;;;;;13.80;3.55;;;;;;;11.64;100.00;100205.00;10326973;28;20316;-68
2023/03/30 08:37:24;;;;;;;18.58;4.15;;;;;;;11.63;100.00;100210.78;10360007;28;20053;-73
2023/03/30 08:42:42;;;;;;;16.67;3.55;;;;;;;11.62;100.00;100218.25;10356984;28;20058;-72
2023/03/30 08:47:44;;;;;;;16.30;4.50;;;;;;;11.48;100.00;100226.25;10357443;28;20089;-69
2023/03/30 08:52:44;;;;;;;19.88;5.35;;;;;;;11.23;100.00;100240.03;10357986;28;20462;-69
2023/03/30 08:57:52;;;;;;;20.15;5.68;;;;;;;11.20;100.00;100254.34;10340885;28;20121;-70
2023/03/30 09:02:58;;;;;;;24.33;6.13;;;;;;;11.18;100.00;100259.28;10358077;28;20054;-70
2023/03/30 09:08:05;;;;;;;20.33;4.57;;;;;;;11.18;100.00;100256.53;10377286;28;20467;-70
2023/03/30 09:13:05;;;;;;;16.13;4.72;;;;;;;11.06;100.00;100276.09;10396449;28;20044;-69
2023/03/30 09:18:29;;;;;;;26.65;5.32;;;;;;;11.00;100.00;100267.00;10359890;28;20053;-69
2023/03/30 09:23:30;;;;;;;20.10;4.28;;;;;;;11.37;100.00;100282.47;10324731;28;20069;-70
2023/03/30 09:29:05;;;;;;;19.25;5.50;;;;;;;11.64;100.00;100275.88;10357369;28;20035;-70
2023/03/30 09:34:18;;;;;;;16.52;3.53;;;;;;;11.65;100.00;100260.97;10339354;28;20053;-71
2023/03/30 09:39:19;;;;;;;22.05;3.78;;;;;;;12.01;100.00;100252.69;10342856;28;20508;-71
2023/03/30 09:44:34;;;;;;;17.25;3.88;;;;;;;12.15;100.00;100259.25;10337160;28;20030;-72
2023/03/30 09:49:37;;;;;;;12.52;2.90;;;;;;;12.28;100.00;100250.41;10357012;28;20505;-76
2023/03/30 09:54:39;;;;;;;14.90;3.08;;;;;;;12.67;100.00;100249.72;10324178;28;20406;-75
2023/03/30 09:59:44;;;;;;;12.13;2.20;;;;;;;12.71;100.00;100250.78;10372074;28;20042;-76
2023/03/30 10:04:56;;;;;;;15.40;2.70;;;;;;;12.70;100.00;100254.66;10355725;28;20065;-76
2023/03/30 10:09:58;;;;;;;19.42;4.05;;;;;;;13.04;100.00;100255.84;10371817;28;20042;-77
2023/03/30 10:15:03;;;;;;;11.80;2.60;;;;;;;13.10;100.00;100236.19;10338855;28;20399;-76
2023/03/30 10:20:20;;;;;;;16.33;2.80;;;;;;;13.05;100.00;100247.28;10371230;28;20477;-76
2023/03/30 10:25:31;;;;;;;20.20;2.70;;;;;;;12.76;100.00;100265.69;10370297;28;20096;-75
2023/03/30 10:30:32;;;;;;;21.23;3.58;;;;;;;12.41;100.00;100278.53;10337794;28;20046;-77
2023/03/30 10:35:35;;;;;;;15.35;2.78;;;;;;;11.87;100.00;100211.03;10369981;28;20077;-77
2023/03/30 10:40:37;;;;;;;14.20;2.88;;;;;;;12.53;100.00;100270.75;10355033;28;20064;-76
2023/03/30 10:45:43;;;;;;;17.85;3.95;;;;;;;12.69;100.00;100286.16;10355364;28;20129;-80
2023/03/30 10:51:06;;;;;;;8.70;2.13;;;;;;;12.68;100.00;100278.16;10370425;28;20046;-78
2023/03/30 10:56:26;;;;;;;12.52;2.78;;;;;;;12.77;100.00;100264.56;10386088;28;20101;-78
2023/03/30 11:01:45;;;;;;;14.68;3.10;;;;;;;12.86;100.00;100271.97;10409862;28;20048;-82
2023/03/30 11:06:45;;;;;;;14.18;2.53;;;;;;;12.82;100.00;100284.72;10412081;28;20049;-80
2023/03/30 11:11:51;;;;;;;16.50;3.10;;;;;;;12.65;100.00;100282.31;10394552;28;20044;-79
2023/03/30 11:16:56;;;;;;;13.93;3.97;;;;;;;12.57;100.00;100280.13;10394298;28;20042;-80
2023/03/30 11:21:56;;;;;;;10.77;2.92;;;;;;;12.59;100.00;100279.81;10398020;28;20492;-81
2023/03/30 11:27:15;;;;;;;17.58;2.75;;;;;;;12.56;100.00;100274.88;10416971;28;20063;-79
2023/03/30 11:32:46;;;;;;;15.90;2.90;;;;;;;12.63;100.00;100279.00;10401454;28;20048;-76
2023/03/30 11:38:05;;;;;;;11.88;2.22;;;;;;;12.83;100.00;100268.94;10400219;28;20048;-77
2023/03/30 11:43:12;;;;;;;15.10;2.78;;;;;;;12.92;100.00;100256.22;10383649;28;20034;-77
2023/03/30 11:48:39;;;;;;;15.40;2.90;;;;;;;12.82;100.00;100273.66;10352024;28;20280;-76
2023/03/30 11:54:05;;;;;;;16.35;3.00;;;;;;;13.16;100.00;100258.25;10397537;28;20165;-77
2023/03/30 11:59:13;;;;;;;11.88;3.13;;;;;;;13.85;100.00;100245.28;10359232;28;20045;-76
2023/03/30 12:04:14;;;;;;;15.63;3.63;;;;;;;14.00;100.00;100263.69;10358957;28;20030;-77
2023/03/30 12:09:20;;;;;;;14.93;2.78;;;;;;;14.39;100.00;100237.78;10358945;28;20040;-78
2023/03/30 12:14:20;;;;;;;12.43;2.50;;;;;;;14.26;100.00;100254.00;10358784;28;20096;-78
2023/03/30 12:19:41;;;;;;;16.77;3.25;;;;;;;13.73;100.00;100265.03;10376963;28;20425;-80
2023/03/30 12:24:50;;;;;;;12.90;3.63;;;;;;;13.73;100.00;100256.75;10374612;28;20053;-78
2023/03/30 12:29:52;;;;;;;12.50;3.45;;;;;;;14.03;100.00;100252.84;10371355;28;20085;-77
2023/03/30 12:34:52;;;;;;;22.23;3.88;;;;;;;14.10;100.00;100263.59;10325199;28;20030;-78
2023/03/30 12:40:05;;;;;;;17.05;3.33;;;;;;;14.57;100.00;100284.09;10341967;28;20097;-78
2023/03/30 12:45:15;;;;;;;15.02;4.30;;;;;;;15.38;100.00;100253.63;10375024;28;20045;-78
2023/03/30 12:50:17;;;;;;;22.70;5.20;;;;;;;15.84;100.00;100261.19;10373844;28;20042;-78
2023/03/30 12:55:46;;;;;;;15.15;4.15;;;;;;;16.08;100.00;100249.09;10374454;28;20042;-80
2023/03/30 13:00:53;;;;;;;19.85;4.07;;;;;;;16.57;100.00;100233.69;10357331;28;20244;-81
2023/03/30 13:05:53;;;;;;;19.65;3.30;;;;;;;16.18;100.00;100226.69;10375282;28;20041;-80
2023/03/30 13:11:10;;;;;;;13.85;3.20;;;;;;;16.90;100.00;100223.25;10342108;28;20026;-78
2023/03/30 13:16:11;;;;;;;;;;;;;;;17.33;100.00;100224.75;10356572;28;20246;-77
2023/03/30 13:21:15;;;;;;;14.77;2.97;;;;;;;17.13;100.00;100243.56;10388768;28;19923;-76
2023/03/30 13:26:25;;;;;;;9.88;3.08;;;;;;;15.30;100.00;100246.81;10374115;28;20125;-77
2023/03/30 13:31:47;;;;;;;14.77;3.38;;;;;;;15.63;100.00;100248.78;10340285;28;20038;-78
2023/03/30 13:37:08;;;;;;;17.02;3.88;;;;;;;17.07;100.00;100224.53;10372920;28;20412;-78
2023/03/30 13:42:34;;;;;;;23.10;4.38;;;;;;;16.09;100.00;100250.75;10351794;28;20069;-79
2023/03/30 13:47:56;;;;;;;20.02;3.47;;;;;;;15.83;100.00;100253.97;10338087;28;20048;-77
2023/03/30 13:52:57;;;;;;;15.70;3.45;;;;;;;16.13;100.00;100229.56;10355614;28;20068;-77
2023/03/30 13:58:09;;;;;;;15.80;3.42;;;;;;;16.01;100.00;100248.69;10339981;28;20039;-79
2023/03/30 14:03:43;;;;;;;19.58;3.30;;;;;;;15.10;100.00;100256.25;10355917;28;20041;-78
2023/03/30 14:08:47;;;;;;;14.00;3.20;;;;;;;14.59;100.00;100259.69;10354855;28;20177;-78
2023/03/30 14:13:50;;;;;;;21.08;4.15;;;;;;;14.17;100.00;100263.22;10354901;28;20034;-71
2023/03/30 14:18:52;;;;;;;21.23;4.05;;;;;;;13.86;100.00;100278.19;10354688;28;20409;-75
2023/03/30 14:23:53;;;;;;;20.25;3.28;;;;;;;13.79;100.00;100286.00;10323548;28;20058;-77
2023/03/30 14:28:57;;;;;;;14.20;3.65;;;;;;;14.66;100.00;100246.34;10338422;28;20038;-77
2023/03/30 14:33:58;;;;;;;16.13;4.28;;;;;;;14.96;100.00;100271.97;10354621;28;20072;-76
2023/03/30 14:38:58;;;;;;;20.15;3.97;;;;;;;14.49;100.00;100251.50;10366699;28;20068;-77
2023/03/30 14:44:02;;;;;;;18.42;3.25;;;;;;;13.90;100.00;100199.00;10409737;28;20033;-77
2023/03/30 14:49:03;;;;;;;16.58;3.67;;;;;;;14.14;100.00;100275.72;10392922;28;20037;-78
2023/03/30 14:54:04;;;;;;;19.50;3.85;;;;;;;14.03;100.00;100268.63;10411978;28;20504;-78
2023/03/30 14:59:04;;;;;;;28.23;4.72;;;;;;;13.81;100.00;100288.47;10385720;28;20048;-79
2023/03/30 15:04:10;;;;;;;24.85;4.80;;;;;;;14.06;100.00;100291.00;10386031;28;20041;-79
2023/03/30 15:09:15;;;;;;;13.65;3.72;;;;;;;14.09;100.00;100279.34;10402025;28;20037;-79
2023/03/30 15:14:18;;;;;;;17.73;2.80;;;;;;;14.15;100.00;100302.28;10385998;28;20401;-79
2023/03/30 15:19:29;;;;;;;15.05;3.17;;;;;;;15.14;100.00;100285.03;10402780;28;20552;-79
2023/03/30 15:24:31;;;;;;;19.20;4.22;;;;;;;16.08;100.00;100262.97;10385697;28;20033;-76
2023/03/30 15:29:31;;;;;;;27.67;4.85;;;;;;;15.00;100.00;100275.78;10401897;28;20033;-78
2023/03/30 15:34:32;;;;;;;22.92;4.22;;;;;;;14.46;100.00;100279.78;10375636;28;20425;-79
2023/03/30 15:39:32;;;;;;;22.33;4.32;;;;;;;13.80;100.00;100281.31;10360059;28;20042;-78
2023/03/30 15:44:35;;;;;;;19.63;3.90;;;;;;;13.94;100.00;100309.94;10360055;28;20084;-80
2023/03/30 15:49:40;;;;;;;21.17;4.50;;;;;;;13.62;100.00;100303.03;10377360;28;20377;-79
2023/03/30 15:54:47;;;;;;;29.75;5.78;;;;;;;13.38;100.00;100296.59;10327563;28;20052;-80
2023/03/30 15:59:51;;;;;;;21.20;4.57;;;;;;;13.46;100.00;100302.31;10360727;28;20132;-80
2023/03/30 16:04:53;;;;;;;29.27;5.95;;;;;;;13.44;100.00;100299.00;10387947;28;20045;-81
2023/03/30 16:09:53;;;;;;;19.38;4.38;;;;;;;12.81;100.00;100215.94;10381329;28;20038;-76
2023/03/30 16:14:54;;;;;;;22.33;4.03;;;;;;;13.29;100.00;100311.00;10378215;28;20100;-79
2023/03/30 16:19:54;;;;;;;25.55;4.72;;;;;;;13.29;100.00;100321.22;10399298;28;20041;-79
2023/03/30 16:24:55;;;;;;;24.27;4.63;;;;;;;13.03;100.00;100299.25;10385246;28;20049;-78
2023/03/30 16:29:55;;;;;;;27.90;4.47;;;;;;;13.09;100.00;100311.91;10414488;28;20033;-81
2023/03/30 16:34:56;;;;;;;27.40;5.40;;;;;;;13.14;100.00;100291.72;10416493;28;20037;-78
2023/03/30 16:39:56;;;;;;;32.90;4.75;;;;;;;13.05;100.00;100290.66;10390397;28;20053;-79
2023/03/30 16:44:57;;;;;;;22.70;5.55;;;;;;;13.05;100.00;100302.53;10416582;28;20091;-79
2023/03/30 16:49:58;;;;;;;22.73;5.45;;;;;;;12.92;100.00;100289.38;10415213;28;20042;-69
2023/03/30 16:54:58;;;;;;;20.55;4.75;;;;;;;12.91;100.00;100318.09;10397772;28;20119;-80
2023/03/30 16:59:59;;;;;;;24.90;5.70;;;;;;;12.78;100.00;100311.25;10381649;28;20037;-86
2023/03/30 17:04:59;;;;;;;35.10;6.28;;;;;;;12.74;100.00;100310.16;10412941;28;20057;-81
2023/03/30 17:10:00;;;;;;;29.42;5.85;;;;;;;12.79;100.00;100312.06;10376711;28;20845;-80
2023/03/30 17:15:00;;;;;;;27.20;5.22;;;;;;;12.73;100.00;100316.78;10365483;28;20528;-80
2023/03/30 17:20:17;;;;;;;30.20;6.35;;;;;;;12.49;100.00;100331.22;10418333;28;20095;-72
2023/03/30 17:25:25;;;;;;;41.30;7.68;;;;;;;12.41;100.00;100337.31;10398459;28;20061;-83
2023/03/30 17:30:29;;;;;;;26.58;5.65;;;;;;;12.18;100.00;100330.47;10366948;28;20249;-84
2023/03/30 17:35:29;;;;;;;30.67;5.40;;;;;;;12.16;100.00;100349.25;10379082;28;20033;-79
2023/03/30 17:40:31;;;;;;;32.63;5.47;;;;;;;11.99;100.00;100344.00;10397801;28;20041;-82
2023/03/30 17:45:33;;;;;;;31.35;6.63;;;;;;;11.91;100.00;100330.78;10422514;28;20108;-82
2023/03/30 17:50:35;;;;;;;24.58;5.20;;;;;;;11.91;100.00;100361.94;10369832;28;20087;-81
2023/03/30 17:55:35;;;;;;;28.20;5.13;;;;;;;11.81;100.00;100355.56;10343644;28;20044;-80
2023/03/30 18:00:36;;;;;;;31.75;6.15;;;;;;;11.68;100.00;100349.50;10413602;28;20072;-81
2023/03/30 18:05:36;;;;;;;38.35;7.55;;;;;;;11.64;100.00;100342.88;10395903;28;20026;-80
2023/03/30 18:10:37;;;;;;;25.38;5.97;;;;;;;11.60;100.00;100351.97;10378203;28;20483;-79
2023/03/30 18:15:38;;;;;;;37.05;6.22;;;;;;;11.62;100.00;100347.00;10398453;28;20485;-74
2023/03/30 18:20:40;;;;;;;32.95;5.50;;;;;;;11.66;100.00;100365.47;10399698;28;20042;-81
2023/03/30 18:25:42;;;;;;;23.83;7.25;;;;;;;11.66;100.00;100356.38;10379018;28;20033;-79
2023/03/30 18:30:42;;;;;;;24.73;5.90;;;;;;;11.64;100.00;100361.34;10359452;28;20029;-81
2023/03/30 18:35:44;;;;;;;27.20;5.00;;;;;;;11.63;100.00;100370.72;10376611;28;20034;-81
2023/03/30 18:40:49;;;;;;;29.75;5.28;;;;;;;11.63;100.00;100362.44;10406593;28;20523;-79
2023/03/30 18:45:49;;;;;;;31.30;5.25;;;;;;;11.56;100.00;100365.47;10377245;28;20061;-83
2023/03/30 18:50:53;;;;;;;26.75;5.85;;;;;;;11.51;100.00;100365.44;10374468;28;20060;-76
2023/03/30 18:56:00;;;;;;;28.65;5.75;;;;;;;11.44;100.00;100357.44;10403828;28;20040;-77
2023/03/30 19:01:00;;;;;;;26.83;4.43;;;;;;;11.57;100.00;100369.03;10403552;28;20038;-78
2023/03/30 19:06:01;;;;;;;29.13;5.88;;;;;;;11.48;100.00;100364.06;10403209;28;20034;-77
2023/03/30 19:11:01;;;;;;;32.30;4.63;;;;;;;11.50;100.00;100361.03;10388134;28;20401;-73
2023/03/30 19:16:04;;;;;;;29.13;5.03;;;;;;;11.50;100.00;100367.38;10418217;28;20034;-76
2023/03/30 19:21:04;;;;;;;31.00;5.53;;;;;;;11.57;100.00;100369.88;10401265;28;20116;-76
2023/03/30 19:26:06;;;;;;;23.15;4.60;;;;;;;11.46;100.00;100358.00;10400966;28;20073;-76
2023/03/30 19:31:12;;;;;;;31.25;5.75;;;;;;;11.52;100.00;100376.22;10400883;28;20029;-75
2023/03/30 19:36:12;;;;;;;23.30;4.40;;;;;;;11.46;100.00;100363.50;10402077;28;20033;-77
2023/03/30 19:41:13;;;;;;;25.73;5.07;;;;;;;11.32;100.00;100343.09;10404349;28;20791;-77
2023/03/30 19:46:13;;;;;;;27.40;5.05;;;;;;;11.44;100.00;100367.66;10383216;28;20048;-77
2023/03/30 19:51:13;;;;;;;30.60;5.90;;;;;;;11.30;100.00;100353.56;10374171;28;20144;-77
2023/03/30 19:56:14;;;;;;;21.42;4.35;;;;;;;11.34;100.00;100354.66;10376214;28;20503;-77
2023/03/30 20:01:15;;;;;;;24.38;4.22;;;;;;;10.89;100.00;100290.06;10380246;28;20112;-78
2023/03/30 20:06:16;;;;;;;21.55;4.45;;;;;;;11.10;100.00;100337.81;10399634;28;20042;-77
2023/03/30 20:11:16;;;;;;;18.75;4.60;;;;;;;10.99;100.00;100308.56;10406075;28;20045;-77
2023/03/30 20:16:20;;;;;;;29.70;6.00;;;;;;;11.07;100.00;100322.63;10369995;28;20100;-78
2023/03/30 20:21:21;;;;;;;19.90;4.15;;;;;;;11.13;100.00;100329.00;10356542;28;20108;-77
2023/03/30 20:26:21;;;;;;;22.58;5.00;;;;;;;11.09;100.00;100334.22;10382499;28;20053;-77
2023/03/30 20:31:22;;;;;;;25.25;3.40;;;;;;;10.97;100.00;100339.13;10382459;28;20037;-77
2023/03/30 20:36:24;;;;;;;24.48;3.67;;;;;;;10.91;100.00;100337.44;10415112;28;20065;-76
2023/03/30 20:41:24;;;;;;;24.42;5.75;;;;;;;10.85;100.00;100335.78;10383758;28;20075;-77
2023/03/30 20:46:34;;;;;;;33.38;5.63;;;;;;;10.72;100.00;100325.28;10369809;28;20041;-77
2023/03/30 20:51:35;;;;;;;20.27;4.03;;;;;;;10.59;100.00;100332.94;10367409;28;20064;-77
2023/03/30 20:56:36;;;;;;;22.45;6.97;;;;;;;10.11;100.00;100285.31;10367528;28;20045;-77
2023/03/30 21:01:39;;;;;;;23.13;4.03;;;;;;;10.53;100.00;100349.69;10353630;28;20061;-77
2023/03/30 21:06:40;;;;;;;18.67;4.95;;;;;;;10.43;100.00;100339.44;10379834;28;20042;-76
2023/03/30 21:11:41;;;;;;;19.15;3.30;;;;;;;10.41;100.00;100336.13;10375872;28;20043;-78
2023/03/30 21:16:41;;;;;;;23.33;4.88;;;;;;;10.49;100.00;100332.88;10384330;28;20057;-77
2023/03/30 21:21:42;;;;;;;16.30;3.55;;;;;;;10.46;100.00;100316.91;10375219;28;20042;-76
2023/03/30 21:26:42;;;;;;;17.10;3.83;;;;;;;10.08;100.00;100250.06;10344936;28;20401;-77
2023/03/30 21:31:43;;;;;;;19.42;3.80;;;;;;;10.38;100.00;100298.16;10386092;28;20082;-77
2023/03/30 21:36:43;;;;;;;25.95;3.45;;;;;;;10.17;100.00;100287.00;10358602;28;20053;-77
2023/03/30 21:41:44;;;;;;;25.42;4.40;;;;;;;10.16;100.00;100301.00;10374386;28;20041;-77
2023/03/30 21:46:45;;;;;;;17.48;4.00;;;;;;;9.95;100.00;100273.38;10344712;28;20081;-77
2023/03/30 21:51:45;;;;;;;19.27;5.00;;;;;;;9.94;100.00;100276.38;10392732;28;20543;-77
2023/03/30 21:56:47;;;;;;;18.20;3.28;;;;;;;9.77;100.00;100277.38;10363558;28;20065;-76
2023/03/30 22:01:48;;;;;;;19.75;4.25;;;;;;;9.76;100.00;100270.22;10396180;28;20542;-76
2023/03/30 22:06:48;;;;;;;23.25;4.00;;;;;;;9.90;100.00;100284.31;10364019;28;20041;-76
2023/03/30 22:11:51;;;;;;;22.33;3.75;;;;;;;9.86;100.00;100267.53;10374281;28;20041;-76
2023/03/30 22:16:51;;;;;;;23.55;5.28;;;;;;;9.88;100.00;100268.09;10375630;28;20044;-77
2023/03/30 22:21:52;;;;;;;28.42;4.40;;;;;;;9.81;100.00;100273.00;10376216;28;20384;-76
2023/03/30 22:26:52;;;;;;;22.50;3.75;;;;;;;9.85;100.00;100284.31;10394578;28;20057;-77
2023/03/30 22:31:54;;;;;;;18.52;3.63;;;;;;;9.95;100.00;100258.81;10395833;28;20046;-76
2023/03/30 22:36:55;;;;;;;22.10;4.25;;;;;;;10.05;100.00;100261.63;10363934;28;20037;-75
2023/03/30 22:41:56;;;;;;;25.65;4.53;;;;;;;10.01;100.00;100246.75;10394836;28;20049;-76
2023/03/30 22:46:56;;;;;;;18.95;3.50;;;;;;;10.12;100.00;100240.19;10376176;28;20037;-76
2023/03/30 22:51:58;;;;;;;19.70;5.22;;;;;;;10.05;100.00;100225.88;10407370;28;20040;-76